Sharps Island — WDB2219 — position and weather

sailwx.info

Track history (hours):
 
Tides and Currents Weather Stations Pressure Air Temp Water Temp Dewpoint Dewpoint Depression Visibility Wind Speed Wind Dir Waves Ship Positions

Sharps Island

Owner: Langenfelder Marine Inc., Stevensville, MD. More information available from US FCC via Universal Licensing System and Coast Guard Vessel Documentation Center.

Last reported at 2015-Mar-26 15:10 UTC. Time now 2015-Mar-28 14:22 UTC.
Position N 39°02' W 076°18'.

Length 25 m.

Type: Tug. MMSI: 338126265.

Date/timePositionNaut miles runAvg speedWind from/ knotsBaromVisibWave heightAir tempDewpointWater temp
2015-Mar-26 15:10N 39°02' W 076°18'0 0.0
2015-Mar-26 11:18N 39°02' W 076°18'0 0.0
2015-Mar-26 07:08N 39°02' W 076°18'2 1.3
2015-Mar-26 05:33N 39°02' W 076°21'  
2015-Mar-21 04:21N 39°24' W 076°04'7 8.2
2015-Mar-21 03:33N 39°29' W 075°57'7 7.4
2015-Mar-21 02:33N 39°32' W 075°49'7 7.0
2015-Mar-21 01:33N 39°33' W 075°40'5 5.3
2015-Mar-21 00:33N 39°32' W 075°33'6 5.8
2015-Mar-20 23:33N 39°26' W 075°32'6 6.3
2015-Mar-20 22:33N 39°22' W 075°27'6 5.7
2015-Mar-20 21:33N 39°17' W 075°22'5 5.5
2015-Mar-20 20:33N 39°13' W 075°17'5 4.8
2015-Mar-20 19:33N 39°09' W 075°14'10 4.2
2015-Mar-20 17:09N 39°12' W 075°02'1 2.1
2015-Mar-20 16:32N 39°14' W 075°02'0 0.0
2015-Mar-20 15:33N 39°14' W 075°02'0 0.0
2015-Mar-20 14:27N 39°14' W 075°02'0 0.0
2015-Mar-20 13:33N 39°14' W 075°02'0 0.0
2015-Mar-20 12:20N 39°14' W 075°02'0 0.1
2015-Mar-20 11:07N 39°14' W 075°02'1 2.1
2015-Mar-20 10:33N 39°15' W 075°01'1 1.3
2015-Mar-20 09:31N 39°16' W 074°59'0 0.0
2015-Mar-20 08:10N 39°16' W 074°59'0 0.0
2015-Mar-20 07:22N 39°16' W 074°59'0 0.0
2015-Mar-20 06:16N 39°16' W 074°59'0 0.0
2015-Mar-20 03:28N 39°16' W 074°59'3 0.2
2015-Mar-19 16:14N 39°14' W 075°02'0 0.0
2015-Mar-19 13:32N 39°14' W 075°02'0 0.0
2015-Mar-19 12:23N 39°14' W 075°02'0 0.2
2015-Mar-19 11:18N 39°14' W 075°02'4 4.9
2015-Mar-19 10:23N 39°09' W 075°03'6 6.5
2015-Mar-19 09:27N 39°05' W 075°09'7 7.3
2015-Mar-19 08:33N 39°10' W 075°15'1010.2
2015-Mar-19 07:33N 39°18' W 075°23'1111.0
2015-Mar-19 06:33N 39°26' W 075°32'8 7.5
2015-Mar-19 05:33N 39°33' W 075°35'7 6.8
2015-Mar-19 04:33N 39°32' W 075°44'6 6.4
2015-Mar-19 03:33N 39°31' W 075°52'8 7.6
2015-Mar-19 02:33N 39°26' W 075°60'8 7.9
2015-Mar-19 01:33N 39°22' W 076°08'22 0.6
2015-Mar-17 11:12N 39°02' W 076°18'2 2.5
2015-Mar-17 10:23N 39°04' W 076°18'7 8.2
2015-Mar-17 09:30N 38°58' W 076°24'9 8.9
2015-Mar-17 08:30N 38°50' W 076°27'  
Track history (hours):
 
Tides and Currents Weather Stations Pressure Air Temp Water Temp Dewpoint Dewpoint Depression Visibility Wind Speed Wind Dir Waves Ship Positions

Sharps Island

Owner: Langenfelder Marine Inc., Stevensville, MD. More information available from US FCC via Universal Licensing System and Coast Guard Vessel Documentation Center.

Last reported at 2015-Mar-26 15:10 UTC. Time now 2015-Mar-28 14:22 UTC.
Position N 39°02' W 076°18'.

Length 25 m.

Type: Tug. MMSI: 338126265.

Date/timePositionNaut miles runAvg speedWind from/ knotsBaromVisibWave heightAir tempDewpointWater temp
2015-Mar-26 15:10N 39°02' W 076°18'0 0.0
2015-Mar-26 11:18N 39°02' W 076°18'0 0.0
2015-Mar-26 07:08N 39°02' W 076°18'2 1.3
2015-Mar-26 05:33N 39°02' W 076°21'  
2015-Mar-21 04:21N 39°24' W 076°04'7 8.2
2015-Mar-21 03:33N 39°29' W 075°57'7 7.4
2015-Mar-21 02:33N 39°32' W 075°49'7 7.0
2015-Mar-21 01:33N 39°33' W 075°40'5 5.3
2015-Mar-21 00:33N 39°32' W 075°33'6 5.8
2015-Mar-20 23:33N 39°26' W 075°32'6 6.3
2015-Mar-20 22:33N 39°22' W 075°27'6 5.7
2015-Mar-20 21:33N 39°17' W 075°22'5 5.5
2015-Mar-20 20:33N 39°13' W 075°17'5 4.8
2015-Mar-20 19:33N 39°09' W 075°14'10 4.2
2015-Mar-20 17:09N 39°12' W 075°02'1 2.1
2015-Mar-20 16:32N 39°14' W 075°02'0 0.0
2015-Mar-20 15:33N 39°14' W 075°02'0 0.0
2015-Mar-20 14:27N 39°14' W 075°02'0 0.0
2015-Mar-20 13:33N 39°14' W 075°02'0 0.0
2015-Mar-20 12:20N 39°14' W 075°02'0 0.1
2015-Mar-20 11:07N 39°14' W 075°02'1 2.1
2015-Mar-20 10:33N 39°15' W 075°01'1 1.3
2015-Mar-20 09:31N 39°16' W 074°59'0 0.0
2015-Mar-20 08:10N 39°16' W 074°59'0 0.0
2015-Mar-20 07:22N 39°16' W 074°59'0 0.0
2015-Mar-20 06:16N 39°16' W 074°59'0 0.0
2015-Mar-20 03:28N 39°16' W 074°59'3 0.2
2015-Mar-19 16:14N 39°14' W 075°02'0 0.0
2015-Mar-19 13:32N 39°14' W 075°02'0 0.0
2015-Mar-19 12:23N 39°14' W 075°02'0 0.2
2015-Mar-19 11:18N 39°14' W 075°02'4 4.9
2015-Mar-19 10:23N 39°09' W 075°03'6 6.5
2015-Mar-19 09:27N 39°05' W 075°09'7 7.3
2015-Mar-19 08:33N 39°10' W 075°15'1010.2
2015-Mar-19 07:33N 39°18' W 075°23'1111.0
2015-Mar-19 06:33N 39°26' W 075°32'8 7.5
2015-Mar-19 05:33N 39°33' W 075°35'7 6.8
2015-Mar-19 04:33N 39°32' W 075°44'6 6.4
2015-Mar-19 03:33N 39°31' W 075°52'8 7.6
2015-Mar-19 02:33N 39°26' W 075°60'8 7.9
2015-Mar-19 01:33N 39°22' W 076°08'22 0.6
2015-Mar-17 11:12N 39°02' W 076°18'2 2.5
2015-Mar-17 10:23N 39°04' W 076°18'7 8.2
2015-Mar-17 09:30N 38°58' W 076°24'9 8.9
2015-Mar-17 08:30N 38°50' W 076°27'  

Dump ship's entire track history